Time;durP1;ratioP1;P1;durP2;ratioP2;P2;SDS_P1;SDS_P2;PMS_P1;PMS_P2;Temp;Humidity;BMP_temperature;BMP_pressure;BME280_temperature;BME280_humidity;BME280_pressure;Samples;Min_cycle;Max_cycle;Signal;HPM_P1;HPM_P2
2023/09/14 00:01:44;;;;;;;8.90;2.72;;;;;;;9.97;100.00;102440.94;5073065;28;20060;-76
2023/09/14 00:04:10;;;;;;;6.30;2.90;;;;;;;9.97;100.00;102448.03;5073431;28;20035;-76
2023/09/14 00:06:35;;;;;;;6.22;2.53;;;;;;;9.96;100.00;102449.00;5072981;28;20016;-76
2023/09/14 00:09:00;;;;;;;6.55;2.78;;;;;;;9.92;100.00;102450.97;5072562;28;20028;-76
2023/09/14 00:11:26;;;;;;;6.50;2.70;;;;;;;9.88;100.00;102452.97;5073165;28;20532;-75
2023/09/14 00:13:51;;;;;;;6.53;2.60;;;;;;;9.88;100.00;102452.13;5071635;28;20491;-76
2023/09/14 00:16:16;;;;;;;5.97;2.70;;;;;;;9.85;100.00;102458.50;5073121;28;20036;-76
2023/09/14 00:18:42;;;;;;;6.35;2.60;;;;;;;9.84;100.00;102466.56;5071289;28;20029;-77
2023/09/14 00:21:07;;;;;;;10.38;3.28;;;;;;;9.81;100.00;102456.13;5073131;28;20028;-75
2023/09/14 00:23:32;;;;;;;7.80;2.88;;;;;;;9.78;100.00;102450.97;5073208;28;20051;-76
2023/09/14 00:25:58;;;;;;;6.40;2.70;;;;;;;9.73;100.00;102459.22;5072380;28;20029;-76
2023/09/14 00:28:23;;;;;;;6.63;2.70;;;;;;;9.65;100.00;102451.72;5073234;28;20020;-75
2023/09/14 00:30:52;;;;;;;5.10;2.60;;;;;;;9.64;100.00;102446.50;5072350;28;20100;-76
2023/09/14 00:33:18;;;;;;;7.40;2.53;;;;;;;9.64;100.00;102447.38;5072632;28;20398;-75
2023/09/14 00:35:46;;;;;;;8.18;2.85;;;;;;;9.63;100.00;102445.66;5072491;28;20082;-77
2023/09/14 00:38:12;;;;;;;7.53;3.50;;;;;;;9.65;100.00;102449.06;5071611;28;20032;-76
2023/09/14 00:40:38;;;;;;;8.10;3.00;;;;;;;9.67;100.00;102451.63;5073177;28;20036;-76
2023/09/14 00:43:03;;;;;;;8.63;2.90;;;;;;;9.64;100.00;102447.38;5071836;28;20449;-76
2023/09/14 00:45:31;;;;;;;8.88;3.08;;;;;;;9.63;100.00;102453.63;5072612;28;20119;-76
2023/09/14 00:47:58;;;;;;;11.55;3.10;;;;;;;9.63;100.00;102443.00;5072072;28;20137;-76
2023/09/14 00:50:25;;;;;;;3.88;2.15;;;;;;;9.62;100.00;102446.59;5072351;28;20051;-76
2023/09/14 00:52:57;;;;;;;9.60;3.22;;;;;;;9.61;100.00;102447.53;5071979;28;20422;-76
2023/09/14 00:55:23;;;;;;;10.68;3.63;;;;;;;9.62;100.00;102443.94;5072594;28;20040;-76
2023/09/14 00:57:49;;;;;;;6.88;3.00;;;;;;;9.59;100.00;102446.78;5071829;28;20086;-76
2023/09/14 01:00:16;;;;;;;7.25;2.40;;;;;;;9.56;100.00;102441.66;5071297;28;20040;-76
2023/09/14 01:02:42;;;;;;;8.95;2.85;;;;;;;9.52;100.00;102445.44;5071082;28;20491;-76
2023/09/14 01:05:08;;;;;;;6.22;2.65;;;;;;;9.50;100.00;102442.03;5071663;28;20028;-76
2023/09/14 01:07:34;;;;;;;5.97;3.25;;;;;;;9.52;100.00;102446.31;5072548;28;20043;-76
2023/09/14 01:10:00;;;;;;;4.75;2.33;;;;;;;9.48;100.00;102442.13;5071815;28;20028;-76
2023/09/14 01:12:26;;;;;;;8.55;3.45;;;;;;;9.45;100.00;102447.63;5072787;28;20032;-76
2023/09/14 01:15:00;;;;;;;8.40;3.00;;;;;;;9.45;100.00;102446.75;5071936;28;20028;-76
2023/09/14 01:17:41;;;;;;;7.45;3.45;;;;;;;9.44;100.00;102448.56;5072349;28;20460;-75
2023/09/14 01:20:30;;;;;;;13.43;3.47;;;;;;;9.46;100.00;102445.81;5072050;28;20070;-76
2023/09/14 01:23:18;;;;;;;9.60;3.63;;;;;;;9.46;100.00;102449.31;5071514;28;20380;-76
2023/09/14 01:25:47;;;;;;;8.73;3.33;;;;;;;9.47;100.00;102444.88;5072412;28;20031;-76
2023/09/14 01:28:14;;;;;;;8.25;3.50;;;;;;;9.44;100.00;102448.56;5071777;28;20032;-76
2023/09/14 01:30:41;;;;;;;7.82;3.00;;;;;;;9.41;100.00;102442.59;5072086;28;20029;-76
2023/09/14 01:33:09;;;;;;;8.25;3.25;;;;;;;9.38;100.00;102440.97;5071786;28;20082;-76
2023/09/14 01:35:41;;;;;;;5.80;3.05;;;;;;;9.39;100.00;102447.13;5071865;28;20294;-75
2023/09/14 01:38:06;;;;;;;8.43;3.33;;;;;;;9.38;100.00;102440.97;5070625;28;20404;-76
2023/09/14 01:40:34;;;;;;;10.90;2.92;;;;;;;9.32;100.00;102434.22;5071110;28;20112;-75
2023/09/14 01:43:01;;;;;;;5.88;2.95;;;;;;;9.33;100.00;102437.72;5071600;28;20055;-76
2023/09/14 01:45:27;;;;;;;8.20;3.50;;;;;;;9.31;100.00;102437.81;5072136;28;20030;-76
2023/09/14 01:47:53;;;;;;;8.23;3.33;;;;;;;9.29;100.00;102438.88;5076022;28;20055;-77
2023/09/14 01:50:18;;;;;;;8.90;2.80;;;;;;;9.28;100.00;102442.47;5075607;28;20456;-76
2023/09/14 01:52:45;;;;;;;4.75;3.00;;;;;;;9.29;100.00;102441.53;5074455;28;20020;-74
2023/09/14 01:55:12;;;;;;;11.02;3.30;;;;;;;9.31;100.00;102442.28;5075427;28;20086;-74
2023/09/14 01:57:38;;;;;;;11.57;3.30;;;;;;;9.30;100.00;102444.09;5075648;28;20024;-74
2023/09/14 02:00:03;;;;;;;6.22;3.22;;;;;;;9.29;100.00;102441.53;5075348;28;20150;-75
2023/09/14 02:02:29;;;;;;;7.15;3.10;;;;;;;9.30;100.00;102436.13;5075797;28;20056;-75
2023/09/14 02:04:54;;;;;;;6.65;3.05;;;;;;;9.34;100.00;102432.34;5075532;28;20111;-77
2023/09/14 02:07:20;;;;;;;9.68;3.47;;;;;;;9.37;100.00;102431.28;5075096;28;20162;-74
2023/09/14 02:09:45;;;;;;;6.95;3.20;;;;;;;9.38;100.00;102425.03;5075738;28;20392;-77
2023/09/14 02:12:10;;;;;;;8.65;3.05;;;;;;;9.37;100.00;102425.97;5074780;28;20100;-77
2023/09/14 02:14:36;;;;;;;6.50;3.08;;;;;;;9.35;100.00;102423.41;5075475;28;20028;-76
2023/09/14 02:17:01;;;;;;;4.85;3.03;;;;;;;9.33;100.00;102424.44;5075093;28;20020;-76
2023/09/14 02:19:26;;;;;;;9.25;3.58;;;;;;;9.32;100.00;102425.41;5075466;28;20032;-76
2023/09/14 02:21:52;;;;;;;8.15;3.53;;;;;;;9.29;100.00;102425.59;5075116;28;20032;-76
2023/09/14 02:24:17;;;;;;;11.05;3.88;;;;;;;9.26;100.00;102420.47;5074669;28;20031;-76
2023/09/14 02:26:42;;;;;;;12.18;3.50;;;;;;;9.25;100.00;102421.41;5075289;28;20024;-76
2023/09/14 02:29:08;;;;;;;8.13;3.92;;;;;;;9.23;100.00;102418.00;5074875;28;20103;-76
2023/09/14 02:31:33;;;;;;;6.25;3.30;;;;;;;9.23;100.00;102415.34;5075240;28;20020;-76
2023/09/14 02:33:59;;;;;;;9.02;3.58;;;;;;;9.21;100.00;102417.22;5075265;28;20043;-76
2023/09/14 02:36:25;;;;;;;10.68;3.95;;;;;;;9.17;100.00;102414.75;5074722;28;20116;-77
2023/09/14 02:38:50;;;;;;;5.80;3.45;;;;;;;9.14;100.00;102420.25;5073771;28;20119;-76
2023/09/14 02:41:16;;;;;;;8.20;3.45;;;;;;;9.09;100.00;102414.38;5074896;28;20052;-76
2023/09/14 02:43:42;;;;;;;8.57;3.60;;;;;;;9.07;100.00;102415.41;5074885;28;20037;-77
2023/09/14 02:46:07;;;;;;;9.60;4.35;;;;;;;9.05;100.00;102414.63;5073185;28;20508;-77
2023/09/14 02:48:33;;;;;;;10.70;3.95;;;;;;;9.05;100.00;102412.81;5074848;28;20033;-76
2023/09/14 02:50:58;;;;;;;9.93;4.43;;;;;;;9.05;100.00;102407.53;5074914;28;20161;-76
2023/09/14 02:53:24;;;;;;;12.20;4.22;;;;;;;9.03;100.00;102411.19;5074098;28;20043;-76
2023/09/14 02:55:49;;;;;;;11.48;3.83;;;;;;;8.96;100.00;102416.88;5074443;28;20033;-77
2023/09/14 02:58:14;;;;;;;11.07;4.03;;;;;;;8.93;100.00;102414.41;5073877;28;20028;-76
2023/09/14 03:00:40;;;;;;;10.20;3.72;;;;;;;8.93;100.00;102408.25;5074650;28;20459;-76
2023/09/14 03:03:07;;;;;;;8.00;3.50;;;;;;;8.90;100.00;102413.75;5074124;28;20488;-77
2023/09/14 03:05:32;;;;;;;8.23;3.78;;;;;;;8.87;100.00;102404.16;5074593;28;20020;-76
2023/09/14 03:07:58;;;;;;;7.82;3.58;;;;;;;8.84;100.00;102401.66;5074638;28;20395;-76
2023/09/14 03:10:23;;;;;;;9.18;3.97;;;;;;;8.83;100.00;102394.66;5074116;28;20021;-76
2023/09/14 03:12:48;;;;;;;9.82;4.45;;;;;;;8.83;100.00;102402.59;5056491;28;20043;-76
2023/09/14 03:15:13;;;;;;;12.25;5.13;;;;;;;8.83;100.00;102397.31;5073029;28;20115;-77
2023/09/14 03:17:39;;;;;;;12.20;4.47;;;;;;;8.81;100.00;102389.44;5074380;28;20108;-77
2023/09/14 03:20:06;;;;;;;11.48;4.82;;;;;;;8.79;100.00;102393.97;5074413;28;20368;-77
2023/09/14 03:22:32;;;;;;;10.52;4.30;;;;;;;8.76;100.00;102386.19;5074186;28;20131;-77
2023/09/14 03:24:57;;;;;;;5.10;3.33;;;;;;;8.71;100.00;102385.59;5072807;28;20148;-76
2023/09/14 03:27:22;;;;;;;5.35;3.30;;;;;;;8.70;100.00;102389.19;5073789;28;20032;-76
2023/09/14 03:29:48;;;;;;;19.70;6.25;;;;;;;8.74;100.00;102393.38;5074328;28;20020;-76
2023/09/14 03:32:13;;;;;;;11.70;5.72;;;;;;;8.85;100.00;102389.25;5073820;28;20024;-76
2023/09/14 03:34:38;;;;;;;9.30;5.35;;;;;;;9.00;100.00;102401.59;5074111;28;20483;-76
2023/09/14 03:37:04;;;;;;;12.23;6.10;;;;;;;9.08;100.00;102403.84;5073947;28;20028;-76
2023/09/14 03:39:29;;;;;;;12.65;5.63;;;;;;;9.09;100.00;102403.75;5072238;28;20066;-76
2023/09/14 03:41:55;;;;;;;10.35;4.50;;;;;;;9.06;100.00;102389.78;5073916;28;20364;-76
2023/09/14 03:44:20;;;;;;;7.13;4.50;;;;;;;9.04;100.00;102397.00;5073397;28;20031;-76
2023/09/14 03:46:45;;;;;;;9.40;5.03;;;;;;;8.98;100.00;102403.50;5073766;28;20028;-76
2023/09/14 03:49:11;;;;;;;8.05;4.32;;;;;;;8.97;100.00;102394.69;5073230;28;20028;-76
2023/09/14 03:51:36;;;;;;;7.78;4.38;;;;;;;8.95;100.00;102399.22;5073328;28;20032;-76
2023/09/14 03:54:01;;;;;;;11.65;5.68;;;;;;;8.94;100.00;102399.31;5072411;28;20028;-76
2023/09/14 03:56:27;;;;;;;14.63;5.70;;;;;;;8.92;100.00;102394.09;5073206;28;20032;-76
2023/09/14 03:58:52;;;;;;;6.55;4.65;;;;;;;8.92;100.00;102387.94;5073184;28;20020;-76
2023/09/14 04:01:18;;;;;;;10.40;5.25;;;;;;;8.90;100.00;102389.84;5072949;28;20123;-76
2023/09/14 04:03:44;;;;;;;12.60;6.00;;;;;;;8.87;100.00;102390.88;5073245;28;20364;-76
2023/09/14 04:06:09;;;;;;;11.23;5.72;;;;;;;8.86;100.00;102385.66;5072981;28;20419;-76
2023/09/14 04:08:35;;;;;;;11.63;5.57;;;;;;;8.82;100.00;102391.16;5072379;28;20068;-76
2023/09/14 04:11:01;;;;;;;12.80;5.35;;;;;;;8.78;100.00;102386.94;5073317;28;20025;-76
2023/09/14 04:13:30;;;;;;;12.55;5.53;;;;;;;8.78;100.00;102384.31;5072425;28;20056;-76
2023/09/14 04:15:57;;;;;;;14.80;5.28;;;;;;;8.77;100.00;102379.94;5073349;28;20024;-76
2023/09/14 04:18:23;;;;;;;9.20;4.90;;;;;;;8.77;100.00;102387.88;5072793;28;20033;-76
2023/09/14 04:20:49;;;;;;;13.75;6.18;;;;;;;8.77;100.00;102389.69;5073090;28;20086;-77
2023/09/14 04:23:15;;;;;;;10.82;5.97;;;;;;;8.75;100.00;102389.78;5072320;28;20526;-76
2023/09/14 04:25:47;;;;;;;15.10;6.43;;;;;;;8.75;100.00;102391.59;5072709;28;20041;-76
2023/09/14 04:28:16;;;;;;;14.63;5.20;;;;;;;8.76;100.00;102395.94;5072047;28;20035;-76
2023/09/14 04:30:50;;;;;;;12.90;6.03;;;;;;;8.75;100.00;102392.44;5071816;28;20111;-76
2023/09/14 04:33:17;;;;;;;10.93;5.93;;;;;;;8.76;100.00;102393.28;5072464;28;20067;-76
2023/09/14 04:35:42;;;;;;;8.88;5.18;;;;;;;8.76;100.00;102388.84;5072768;28;20030;-76
2023/09/14 04:38:08;;;;;;;8.70;5.68;;;;;;;8.78;100.00;102391.41;5072552;28;20431;-76
2023/09/14 04:40:39;;;;;;;9.18;4.70;;;;;;;8.76;100.00;102398.59;5072322;28;20099;-76
2023/09/14 04:43:05;;;;;;;6.67;4.30;;;;;;;8.74;100.00;102395.19;5072443;28;20342;-74
2023/09/14 04:45:31;;;;;;;11.57;5.20;;;;;;;8.72;100.00;102395.28;5072169;28;20309;-75
2023/09/14 04:47:58;;;;;;;9.38;4.97;;;;;;;8.73;100.00;102406.75;5072418;28;20502;-77
2023/09/14 04:50:23;;;;;;;13.05;5.30;;;;;;;8.74;100.00;102400.50;5071910;28;20108;-77
2023/09/14 04:52:49;;;;;;;13.23;5.10;;;;;;;8.75;100.00;102397.75;5071247;28;20063;-77
2023/09/14 04:55:14;;;;;;;9.20;4.95;;;;;;;8.74;100.00;102400.50;5072505;28;20028;-77
2023/09/14 04:57:40;;;;;;;9.38;4.95;;;;;;;8.73;100.00;102404.97;5072161;28;20029;-76
2023/09/14 05:00:08;;;;;;;8.50;4.57;;;;;;;8.68;100.00;102401.69;5072453;28;20055;-77
2023/09/14 05:02:33;;;;;;;8.40;4.10;;;;;;;8.63;100.00;102398.47;5072081;28;20032;-77
2023/09/14 05:04:58;;;;;;;8.68;4.70;;;;;;;8.62;100.00;102402.91;5071292;28;20094;-77
2023/09/14 05:07:23;;;;;;;9.10;4.40;;;;;;;8.63;100.00;102407.28;5071895;28;20032;-77
2023/09/14 05:09:49;;;;;;;8.48;4.72;;;;;;;8.64;100.00;102405.47;5072512;28;20024;-77
2023/09/14 05:12:14;;;;;;;10.18;5.80;;;;;;;8.63;100.00;102401.13;5072149;28;20031;-77
2023/09/14 05:14:39;;;;;;;12.30;5.72;;;;;;;8.64;100.00;102398.38;5070880;28;20090;-77
2023/09/14 05:17:05;;;;;;;10.57;5.75;;;;;;;8.65;100.00;102396.56;5072532;28;20097;-77
2023/09/14 05:19:30;;;;;;;11.80;4.95;;;;;;;8.67;100.00;102402.63;5070823;28;20055;-77
2023/09/14 05:21:55;;;;;;;9.77;4.65;;;;;;;8.67;100.00;102399.97;5075001;28;20067;-77
2023/09/14 05:24:21;;;;;;;8.18;4.50;;;;;;;8.68;100.00;102409.66;5076535;28;20052;-77
2023/09/14 05:26:48;;;;;;;6.63;3.92;;;;;;;8.65;100.00;102397.41;5076093;28;20020;-77
2023/09/14 05:29:14;;;;;;;12.45;3.72;;;;;;;8.64;100.00;102395.72;5076516;28;20039;-77
2023/09/14 05:31:39;;;;;;;7.65;3.53;;;;;;;8.64;100.00;102400.16;5075935;28;20024;-77
2023/09/14 05:34:06;;;;;;;10.20;5.10;;;;;;;8.70;100.00;102410.41;5076443;28;20082;-76
2023/09/14 05:36:31;;;;;;;8.77;4.45;;;;;;;8.75;100.00;102400.41;5076102;28;20039;-77
2023/09/14 05:38:57;;;;;;;5.70;3.90;;;;;;;8.79;100.00;102403.72;5076288;28;20029;-77
2023/09/14 05:41:22;;;;;;;8.38;4.55;;;;;;;8.82;100.00;102404.41;5076162;28;20460;-76
2023/09/14 05:43:47;;;;;;;7.57;4.35;;;;;;;8.88;100.00;102410.31;5075572;28;20029;-76
2023/09/14 05:46:13;;;;;;;7.65;4.47;;;;;;;8.91;100.00;102410.13;5076430;28;20452;-76
2023/09/14 05:48:38;;;;;;;6.38;4.10;;;;;;;8.96;100.00;102397.44;5075614;28;20028;-75
2023/09/14 05:51:03;;;;;;;7.70;4.10;;;;;;;9.01;100.00;102405.97;5074785;28;20492;-76
2023/09/14 05:53:29;;;;;;;5.20;3.30;;;;;;;9.04;100.00;102410.25;5074056;28;20039;-76
2023/09/14 05:55:55;;;;;;;6.65;3.40;;;;;;;9.09;100.00;102416.16;5075805;28;20468;-75
2023/09/14 05:58:20;;;;;;;10.70;4.18;;;;;;;9.13;100.00;102415.88;5074348;28;20032;-76
2023/09/14 06:00:46;;;;;;;8.60;4.15;;;;;;;9.23;100.00;102418.00;5075323;28;20060;-76
2023/09/14 06:03:13;;;;;;;10.63;6.05;;;;;;;9.27;100.00;102424.81;5075587;28;20028;-76
2023/09/14 06:05:38;;;;;;;14.38;7.30;;;;;;;9.29;100.00;102421.13;5074036;28;20040;-76
2023/09/14 06:08:04;;;;;;;12.85;6.90;;;;;;;9.36;100.00;102429.59;5075681;28;20380;-78
2023/09/14 06:10:30;;;;;;;11.60;6.18;;;;;;;9.43;100.00;102427.41;5075435;28;20064;-75
2023/09/14 06:12:55;;;;;;;10.73;5.57;;;;;;;9.52;100.00;102424.19;5075277;28;20028;-75
2023/09/14 06:15:21;;;;;;;12.15;5.32;;;;;;;9.60;100.00;102426.38;5074130;28;20118;-77
2023/09/14 06:17:47;;;;;;;10.15;4.90;;;;;;;9.65;100.00;102422.50;5074738;28;20068;-75
2023/09/14 06:20:12;;;;;;;8.80;5.15;;;;;;;9.69;100.00;102426.69;5075413;28;20021;-75
2023/09/14 06:22:39;;;;;;;10.07;4.97;;;;;;;9.75;100.00;102429.91;5074654;28;20055;-75
2023/09/14 06:25:05;;;;;;;10.60;4.70;;;;;;;9.79;100.00;102421.66;5075094;28;20405;-75
2023/09/14 06:27:30;;;;;;;10.82;5.30;;;;;;;9.87;100.00;102429.16;5074981;28;20044;-75
2023/09/14 06:29:56;;;;;;;16.98;4.97;;;;;;;9.95;100.00;102428.66;5056560;28;20055;-75
2023/09/14 06:32:21;;;;;;;15.20;5.03;;;;;;;10.02;100.00;102422.88;5073510;28;20111;-75
2023/09/14 06:34:47;;;;;;;13.93;5.43;;;;;;;10.08;100.00;102426.94;5074827;28;20035;-75
2023/09/14 06:37:13;;;;;;;10.10;5.45;;;;;;;10.15;100.00;102425.63;5073866;28;20414;-75
2023/09/14 06:39:38;;;;;;;13.50;5.95;;;;;;;10.22;100.00;102424.25;5074706;28;20031;-75
2023/09/14 06:42:04;;;;;;;18.15;6.20;;;;;;;10.33;100.00;102436.91;5075327;28;20082;-76
2023/09/14 06:44:29;;;;;;;22.67;6.63;;;;;;;10.44;100.00;102433.56;5074705;28;20029;-76
2023/09/14 06:46:54;;;;;;;20.73;7.10;;;;;;;10.53;100.00;102432.09;5074571;28;20029;-75
2023/09/14 06:49:20;;;;;;;15.98;8.82;;;;;;;10.62;100.00;102431.50;5075178;28;20033;-75
2023/09/14 06:51:46;;;;;;;16.48;7.53;;;;;;;10.69;100.00;102426.63;5073174;28;20032;-76
2023/09/14 06:54:12;;;;;;;15.35;7.13;;;;;;;10.76;100.00;102430.59;5074609;28;20036;-75
2023/09/14 06:56:37;;;;;;;14.93;6.82;;;;;;;10.86;100.00;102417.53;5072955;28;20039;-76
2023/09/14 06:59:03;;;;;;;14.27;6.63;;;;;;;10.93;100.00;102430.31;5074651;28;20093;-76
2023/09/14 07:01:29;;;;;;;19.65;7.65;;;;;;;11.04;100.00;102426.09;5074911;28;20085;-76
2023/09/14 07:03:54;;;;;;;14.77;7.95;;;;;;;11.14;100.00;102421.84;5072889;28;20166;-76
2023/09/14 07:06:20;;;;;;;20.45;8.30;;;;;;;11.26;100.00;102423.66;5074620;28;20108;-77
2023/09/14 07:08:45;;;;;;;18.23;7.38;;;;;;;11.38;100.00;102424.66;5073793;28;20084;-75
2023/09/14 07:11:11;;;;;;;14.48;6.90;;;;;;;11.49;100.00;102423.06;5073213;28;20028;-75
2023/09/14 07:13:37;;;;;;;27.75;8.32;;;;;;;11.59;100.00;102424.13;5074423;28;20529;-75
2023/09/14 07:16:05;;;;;;;19.73;8.00;;;;;;;11.70;100.00;102418.88;5074025;28;20099;-78
2023/09/14 07:18:32;;;;;;;27.25;8.07;;;;;;;11.80;100.00;102419.09;5074056;28;20097;-77
2023/09/14 07:20:59;;;;;;;24.60;7.75;;;;;;;11.90;100.00;102421.97;5074036;28;20051;-77
2023/09/14 07:23:27;;;;;;;22.38;7.43;;;;;;;11.99;100.00;102430.19;5074212;28;20048;-76
2023/09/14 07:25:53;;;;;;;15.23;6.80;;;;;;;12.08;100.00;102433.16;5073877;28;20035;-77
2023/09/14 07:28:19;;;;;;;18.95;7.40;;;;;;;12.16;100.00;102431.63;5074194;28;20025;-77
2023/09/14 07:30:46;;;;;;;16.83;6.53;;;;;;;12.25;100.00;102435.44;5073844;28;20024;-77
2023/09/14 07:33:12;;;;;;;25.50;6.93;;;;;;;12.34;100.00;102445.47;5074062;28;20102;-77
2023/09/14 07:35:39;;;;;;;12.77;5.82;;;;;;;12.43;100.00;102440.44;5074028;28;20043;-76
2023/09/14 07:38:07;;;;;;;20.30;6.65;;;;;;;12.58;100.00;102447.28;5073726;28;20020;-76
2023/09/14 07:40:32;;;;;;;14.85;6.13;;;;;;;12.68;100.00;102447.50;5073747;28;20024;-76
2023/09/14 07:42:58;;;;;;;14.63;5.50;;;;;;;12.77;100.00;102440.63;5073086;28;20029;-77
2023/09/14 07:45:23;;;;;;;14.10;6.13;;;;;;;12.90;100.00;102444.06;5071961;28;20424;-76
2023/09/14 07:47:48;;;;;;;14.25;5.55;;;;;;;13.04;100.00;102443.88;5073353;28;20025;-76
2023/09/14 07:50:14;;;;;;;8.85;5.50;;;;;;;13.18;100.00;102453.53;5073924;28;20111;-76
2023/09/14 07:52:41;;;;;;;21.58;6.28;;;;;;;13.31;100.00;102442.72;5073835;28;20149;-76
2023/09/14 07:55:07;;;;;;;12.32;5.53;;;;;;;13.49;100.00;102453.00;5071989;28;20025;-76
2023/09/14 07:57:32;;;;;;;11.88;5.15;;;;;;;13.58;100.00;102437.13;5073692;28;20032;-77
2023/09/14 07:59:57;;;;;;;13.27;5.00;;;;;;;13.76;100.00;102436.63;5073133;28;20415;-76
2023/09/14 08:02:23;;;;;;;17.45;6.20;;;;;;;13.91;100.00;102437.22;5073654;28;20046;-76
2023/09/14 08:04:49;;;;;;;13.25;5.45;;;;;;;14.02;100.00;102442.59;5071471;28;20399;-76
2023/09/14 08:07:15;;;;;;;10.05;5.20;;;;;;;14.19;100.00;102441.22;5073405;28;20032;-76
2023/09/14 08:09:40;;;;;;;14.13;5.40;;;;;;;14.42;100.00;102441.19;5073384;28;20090;-76
2023/09/14 08:12:06;;;;;;;18.63;5.68;;;;;;;14.74;100.00;102441.25;5072972;28;20324;-76
2023/09/14 08:14:31;;;;;;;24.90;5.00;;;;;;;15.06;100.00;102440.38;5072842;28;20109;-75
2023/09/14 08:16:57;;;;;;;11.05;4.68;;;;;;;15.37;100.00;102429.72;5072791;28;20060;-75
2023/09/14 08:19:22;;;;;;;11.90;4.50;;;;;;;15.67;100.00;102428.91;5073019;28;20460;-75
2023/09/14 08:21:48;;;;;;;13.43;4.70;;;;;;;15.85;100.00;102434.53;5073209;28;20032;-75
2023/09/14 08:24:13;;;;;;;11.82;5.18;;;;;;;15.96;100.00;102430.88;5072938;28;20048;-74
2023/09/14 08:26:39;;;;;;;12.38;4.57;;;;;;;16.09;100.00;102432.47;5073001;28;20052;-74
2023/09/14 08:29:04;;;;;;;11.38;4.35;;;;;;;16.27;100.00;102427.28;5072701;28;20040;-74
2023/09/14 08:31:29;;;;;;;7.63;3.88;;;;;;;16.50;100.00;102428.75;5072878;28;20029;-74
2023/09/14 08:33:55;;;;;;;14.95;4.88;;;;;;;16.82;100.00;102424.94;5072558;28;20107;-75
2023/09/14 08:36:20;;;;;;;9.77;4.13;;;;;;;17.41;100.00;102420.34;5071659;28;20031;-74
2023/09/14 08:38:45;;;;;;;9.20;4.28;;;;;;;18.01;100.00;102421.84;5072952;28;20024;-74
2023/09/14 08:41:29;;;;;;;8.18;4.05;;;;;;;18.66;100.00;102415.47;5072566;28;20476;-74
2023/09/14 08:43:56;;;;;;;8.57;3.85;;;;;;;19.46;100.00;102420.81;5072689;28;20024;-75
2023/09/14 08:46:23;;;;;;;12.95;4.43;;;;;;;19.90;100.00;102422.63;5072460;28;20047;-74
2023/09/14 08:48:52;;;;;;;10.85;3.90;;;;;;;20.41;100.00;102417.19;5072950;28;20060;-74
2023/09/14 08:51:20;;;;;;;14.68;3.78;;;;;;;21.04;100.00;102425.72;5072781;28;20028;-75
2023/09/14 08:53:46;;;;;;;8.00;3.80;;;;;;;21.31;100.00;102421.78;5072753;28;20029;-75
2023/09/14 08:56:13;;;;;;;14.23;4.03;;;;;;;20.97;100.00;102422.81;5071701;28;20361;-75
2023/09/14 08:58:40;;;;;;;10.60;3.83;;;;;;;21.21;100.00;102418.41;5072421;28;20379;-75
2023/09/14 09:01:09;;;;;;;6.95;3.42;;;;;;;21.96;100.00;102417.19;5072293;28;20129;-75
2023/09/14 09:03:34;;;;;;;6.80;3.67;;;;;;;22.58;100.00;102408.22;5072296;28;20063;-75
2023/09/14 09:06:00;;;;;;;10.43;3.60;;;;;;;22.54;100.00;102405.03;5072335;28;20074;-75
2023/09/14 09:08:28;;;;;;;7.93;3.65;;;;;;;22.69;100.00;102413.22;5072764;28;20325;-75
2023/09/14 09:10:53;;;;;;;8.73;3.60;;;;;;;22.86;100.00;102419.34;5072598;28;20024;-75
2023/09/14 09:13:19;;;;;;;7.68;4.50;;;;;;;23.18;100.00;102408.41;5072110;28;20036;-75
2023/09/14 09:15:44;;;;;;;8.93;3.95;;;;;;;23.47;100.00;102406.72;5071376;28;20396;-75
2023/09/14 09:18:11;;;;;;;7.40;3.85;;;;;;;23.73;100.00;102411.69;5070777;28;20047;-75
2023/09/14 09:20:40;;;;;;;11.20;4.15;;;;;;;23.70;99.65;102412.06;5072571;28;20078;-75
2023/09/14 09:23:06;;;;;;;10.98;4.03;;;;;;;23.22;100.00;102407.84;5071718;28;20041;-74
2023/09/14 09:25:45;;;;;;;8.55;4.20;;;;;;;23.52;100.00;102404.31;5072184;28;20055;-75
2023/09/14 09:28:11;;;;;;;9.68;4.07;;;;;;;23.35;100.00;102406.38;5072079;28;20072;-75
2023/09/14 09:30:36;;;;;;;8.45;4.15;;;;;;;23.68;100.00;102409.53;5072339;28;20078;-75
2023/09/14 09:33:03;;;;;;;10.20;3.75;;;;;;;24.01;100.00;102409.16;5071900;28;20444;-75
2023/09/14 09:35:30;;;;;;;12.50;3.92;;;;;;;24.33;89.83;102398.00;5072355;28;20032;-75
2023/09/14 09:37:58;;;;;;;8.30;3.75;;;;;;;24.39;88.01;102406.25;5072390;28;20086;-75
2023/09/14 09:40:26;;;;;;;5.60;3.40;;;;;;;24.59;81.72;102409.19;5072266;28;20142;-75
2023/09/14 09:42:52;;;;;;;5.97;3.65;;;;;;;24.94;80.47;102405.72;5072271;28;20035;-75
2023/09/14 09:45:25;;;;;;;9.65;3.30;;;;;;;25.37;80.03;102410.25;5071689;28;20025;-75
2023/09/14 09:47:53;;;;;;;7.35;3.40;;;;;;;25.29;67.72;102408.47;5072195;28;20047;-75
2023/09/14 09:50:21;;;;;;;10.70;3.17;;;;;;;25.27;67.25;102410.56;5070633;28;20055;-75
2023/09/14 09:52:48;;;;;;;11.10;3.30;;;;;;;25.69;65.51;102393.22;5072233;28;20024;-75
2023/09/14 09:55:25;;;;;;;9.10;3.35;;;;;;;25.82;69.14;102402.50;5071415;28;20037;-76
2023/09/14 09:57:51;;;;;;;9.48;3.47;;;;;;;25.22;65.46;102402.97;5072449;28;20051;-76
2023/09/14 10:00:19;;;;;;;5.55;2.75;;;;;;;24.05;72.95;102394.16;5071667;28;20083;-76
2023/09/14 10:02:45;;;;;;;8.95;3.40;;;;;;;23.29;93.20;102391.66;5072056;28;20020;-75
2023/09/14 10:05:10;;;;;;;8.52;3.40;;;;;;;23.96;94.02;102387.16;5071488;28;20052;-75
2023/09/14 10:07:39;;;;;;;9.15;3.40;;;;;;;24.67;76.75;102386.44;5073664;28;20063;-76
2023/09/14 10:10:09;;;;;;;12.00;3.10;;;;;;;25.28;68.28;102385.84;5075198;28;20085;-76
2023/09/14 10:12:38;;;;;;;8.27;3.30;;;;;;;25.45;61.80;102385.53;5075689;28;20140;-76
2023/09/14 10:15:05;;;;;;;10.70;3.97;;;;;;;25.42;64.44;102388.66;5074977;28;20488;-76
2023/09/14 10:17:31;;;;;;;7.88;3.10;;;;;;;25.58;64.72;102385.63;5075456;28;20035;-75
2023/09/14 10:20:01;;;;;;;8.88;3.10;;;;;;;25.26;59.62;102384.34;5075566;28;20016;-75
2023/09/14 10:22:27;;;;;;;5.65;2.83;;;;;;;25.51;61.79;102385.59;5074969;28;20082;-75
2023/09/14 10:24:55;;;;;;;6.05;3.40;;;;;;;25.36;60.64;102384.03;5075151;28;20048;-75
2023/09/14 10:27:21;;;;;;;5.88;2.78;;;;;;;25.35;66.64;102380.47;5074967;28;20029;-75
2023/09/14 10:29:47;;;;;;;4.90;2.75;;;;;;;25.27;61.86;102388.75;5075431;28;20077;-75
2023/09/14 10:32:15;;;;;;;6.60;3.15;;;;;;;25.25;62.93;102383.50;5073365;28;20016;-76
2023/09/14 10:34:41;;;;;;;5.75;3.00;;;;;;;25.34;61.95;102373.34;5075104;28;20044;-75
2023/09/14 10:37:09;;;;;;;12.48;3.47;;;;;;;24.95;58.84;102374.72;5075468;28;20062;-76
2023/09/14 10:39:36;;;;;;;7.45;3.28;;;;;;;24.63;62.54;102375.09;5075403;28;20029;-76
2023/09/14 10:42:01;;;;;;;7.47;2.97;;;;;;;24.08;63.38;102376.59;5075125;28;20028;-75
2023/09/14 10:44:28;;;;;;;9.73;3.05;;;;;;;23.23;68.13;102371.53;5074625;28;20416;-76
2023/09/14 10:46:58;;;;;;;13.15;3.50;;;;;;;22.26;77.36;102358.59;5075002;28;20153;-75
2023/09/14 10:49:28;;;;;;;7.80;3.38;;;;;;;21.60;86.21;102361.66;5074284;28;20428;-75
2023/09/14 10:51:55;;;;;;;7.60;3.40;;;;;;;21.29;89.06;102372.41;5075024;28;20082;-75
2023/09/14 10:54:24;;;;;;;13.45;3.75;;;;;;;20.90;93.93;102367.69;5074499;28;20029;-76
2023/09/14 10:56:58;;;;;;;7.63;3.80;;;;;;;20.40;100.00;102369.53;5074666;28;20029;-75
2023/09/14 10:59:48;;;;;;;8.63;3.58;;;;;;;20.04;100.00;102370.66;5074392;28;20046;-76
2023/09/14 11:02:49;;;;;;;9.13;3.30;;;;;;;19.89;100.00;102367.72;5065219;28;20086;-76
2023/09/14 11:05:19;;;;;;;7.35;3.30;;;;;;;19.76;100.00;102370.00;5074247;28;20027;-75
2023/09/14 11:07:49;;;;;;;7.70;3.83;;;;;;;19.64;100.00;102366.75;5074655;28;20024;-75
2023/09/14 11:10:18;;;;;;;8.27;3.67;;;;;;;19.61;100.00;102356.28;5074316;28;20017;-76
2023/09/14 11:12:44;;;;;;;7.53;3.55;;;;;;;19.61;100.00;102358.97;5074602;28;20275;-75
2023/09/14 11:15:20;;;;;;;7.57;3.58;;;;;;;19.51;100.00;102353.72;5073213;28;20063;-75
2023/09/14 11:17:47;;;;;;;13.15;3.53;;;;;;;19.63;100.00;102348.88;5073431;28;20025;-75